sensor_id;sensor_type;location;lat;lon;timestamp;P1;durP1;ratioP1;P2;durP2;ratioP2
18867;SDS011;9563;49.240;9.088;2023-05-02T05:01:46;10.90;;;6.80;;
18867;SDS011;9563;49.240;9.088;2023-05-02T05:04:13;9.88;;;7.28;;
18867;SDS011;9563;49.240;9.088;2023-05-02T05:06:40;10.50;;;7.32;;
18867;SDS011;9563;49.240;9.088;2023-05-02T05:09:07;9.20;;;6.63;;
18867;SDS011;9563;49.240;9.088;2023-05-02T05:11:34;9.23;;;6.85;;
18867;SDS011;9563;49.240;9.088;2023-05-02T05:14:02;13.63;;;7.63;;
18867;SDS011;9563;49.240;9.088;2023-05-02T05:16:29;14.95;;;8.20;;
18867;SDS011;9563;49.240;9.088;2023-05-02T05:18:57;10.68;;;6.72;;
18867;SDS011;9563;49.240;9.088;2023-05-02T05:21:24;10.55;;;7.28;;
18867;SDS011;9563;49.240;9.088;2023-05-02T05:23:51;11.38;;;7.22;;
18867;SDS011;9563;49.240;9.088;2023-05-02T05:26:18;11.68;;;7.90;;
18867;SDS011;9563;49.240;9.088;2023-05-02T05:28:45;11.65;;;7.50;;
18867;SDS011;9563;49.240;9.088;2023-05-02T05:31:12;12.48;;;8.05;;
18867;SDS011;9563;49.240;9.088;2023-05-02T05:33:41;14.35;;;9.50;;
18867;SDS011;9563;49.240;9.088;2023-05-02T05:36:10;12.20;;;8.60;;
18867;SDS011;9563;49.240;9.088;2023-05-02T05:38:38;15.15;;;8.90;;
18867;SDS011;9563;49.240;9.088;2023-05-02T05:41:05;12.57;;;8.80;;
18867;SDS011;9563;49.240;9.088;2023-05-02T05:43:33;12.57;;;9.27;;
18867;SDS011;9563;49.240;9.088;2023-05-02T05:46:00;12.20;;;8.38;;
18867;SDS011;9563;49.240;9.088;2023-05-02T05:48:27;13.50;;;9.60;;
18867;SDS011;9563;49.240;9.088;2023-05-02T05:50:54;17.65;;;9.80;;
18867;SDS011;9563;49.240;9.088;2023-05-02T05:53:22;13.95;;;9.52;;
18867;SDS011;9563;49.240;9.088;2023-05-02T05:55:49;14.13;;;8.75;;
18867;SDS011;9563;49.240;9.088;2023-05-02T05:58:16;14.63;;;9.88;;
18867;SDS011;9563;49.240;9.088;2023-05-02T06:00:43;14.77;;;10.25;;
18867;SDS011;9563;49.240;9.088;2023-05-02T06:03:10;16.42;;;11.07;;
18867;SDS011;9563;49.240;9.088;2023-05-02T06:05:37;18.15;;;11.43;;
18867;SDS011;9563;49.240;9.088;2023-05-02T06:08:03;19.85;;;11.50;;
18867;SDS011;9563;49.240;9.088;2023-05-02T06:10:32;15.50;;;10.95;;
18867;SDS011;9563;49.240;9.088;2023-05-02T06:12:59;16.05;;;10.05;;
18867;SDS011;9563;49.240;9.088;2023-05-02T06:15:26;16.95;;;10.55;;
18867;SDS011;9563;49.240;9.088;2023-05-02T06:17:52;14.85;;;10.60;;
18867;SDS011;9563;49.240;9.088;2023-05-02T06:20:19;16.67;;;10.25;;
18867;SDS011;9563;49.240;9.088;2023-05-02T06:22:46;17.63;;;11.35;;
18867;SDS011;9563;49.240;9.088;2023-05-02T06:25:13;16.42;;;10.70;;
18867;SDS011;9563;49.240;9.088;2023-05-02T06:27:41;16.58;;;10.13;;
18867;SDS011;9563;49.240;9.088;2023-05-02T06:30:08;21.95;;;11.15;;
18867;SDS011;9563;49.240;9.088;2023-05-02T06:32:35;17.45;;;11.25;;
18867;SDS011;9563;49.240;9.088;2023-05-02T06:35:02;19.48;;;11.90;;
18867;SDS011;9563;49.240;9.088;2023-05-02T06:37:31;16.05;;;11.57;;
18867;SDS011;9563;49.240;9.088;2023-05-02T06:39:59;20.17;;;12.05;;
18867;SDS011;9563;49.240;9.088;2023-05-02T06:42:26;18.02;;;11.70;;
18867;SDS011;9563;49.240;9.088;2023-05-02T06:44:54;18.35;;;12.15;;
18867;SDS011;9563;49.240;9.088;2023-05-02T06:47:21;17.75;;;12.27;;
18867;SDS011;9563;49.240;9.088;2023-05-02T06:49:49;20.92;;;12.52;;
18867;SDS011;9563;49.240;9.088;2023-05-02T06:52:16;20.77;;;12.15;;
18867;SDS011;9563;49.240;9.088;2023-05-02T06:54:42;16.17;;;11.18;;
18867;SDS011;9563;49.240;9.088;2023-05-02T06:57:09;19.90;;;12.50;;
18867;SDS011;9563;49.240;9.088;2023-05-02T06:59:36;17.45;;;12.15;;
18867;SDS011;9563;49.240;9.088;2023-05-02T07:02:05;20.67;;;13.23;;
18867;SDS011;9563;49.240;9.088;2023-05-02T07:04:32;21.33;;;14.05;;
18867;SDS011;9563;49.240;9.088;2023-05-02T07:06:59;20.13;;;14.02;;
18867;SDS011;9563;49.240;9.088;2023-05-02T07:09:25;23.02;;;15.13;;
18867;SDS011;9563;49.240;9.088;2023-05-02T07:11:52;22.40;;;15.20;;
18867;SDS011;9563;49.240;9.088;2023-05-02T07:14:19;23.13;;;15.00;;
18867;SDS011;9563;49.240;9.088;2023-05-02T07:16:46;28.75;;;17.25;;
18867;SDS011;9563;49.240;9.088;2023-05-02T07:19:14;30.88;;;15.55;;
18867;SDS011;9563;49.240;9.088;2023-05-02T07:21:41;27.13;;;16.30;;
18867;SDS011;9563;49.240;9.088;2023-05-02T07:24:08;26.20;;;15.82;;
18867;SDS011;9563;49.240;9.088;2023-05-02T07:26:35;25.50;;;15.20;;
18867;SDS011;9563;49.240;9.088;2023-05-02T07:29:02;23.13;;;14.88;;
18867;SDS011;9563;49.240;9.088;2023-05-02T07:31:30;24.38;;;14.52;;
18867;SDS011;9563;49.240;9.088;2023-05-02T07:33:57;24.60;;;15.57;;
18867;SDS011;9563;49.240;9.088;2023-05-02T07:36:25;26.65;;;14.73;;
18867;SDS011;9563;49.240;9.088;2023-05-02T07:38:52;21.50;;;14.77;;
18867;SDS011;9563;49.240;9.088;2023-05-02T07:41:19;22.50;;;14.32;;
18867;SDS011;9563;49.240;9.088;2023-05-02T07:43:46;21.60;;;14.23;;
18867;SDS011;9563;49.240;9.088;2023-05-02T07:46:13;22.75;;;14.68;;
18867;SDS011;9563;49.240;9.088;2023-05-02T07:48:40;24.77;;;15.95;;
18867;SDS011;9563;49.240;9.088;2023-05-02T07:51:07;21.23;;;13.77;;
18867;SDS011;9563;49.240;9.088;2023-05-02T07:53:36;20.80;;;14.02;;
18867;SDS011;9563;49.240;9.088;2023-05-02T07:56:03;21.95;;;13.30;;
18867;SDS011;9563;49.240;9.088;2023-05-02T07:58:31;20.42;;;13.75;;
18867;SDS011;9563;49.240;9.088;2023-05-02T08:00:58;26.08;;;15.52;;
18867;SDS011;9563;49.240;9.088;2023-05-02T08:03:24;25.02;;;13.63;;
18867;SDS011;9563;49.240;9.088;2023-05-02T08:05:52;22.42;;;14.90;;
18867;SDS011;9563;49.240;9.088;2023-05-02T08:08:19;22.52;;;13.82;;
18867;SDS011;9563;49.240;9.088;2023-05-02T08:10:47;21.90;;;14.82;;
18867;SDS011;9563;49.240;9.088;2023-05-02T08:13:15;17.73;;;11.80;;
18867;SDS011;9563;49.240;9.088;2023-05-02T08:15:42;18.85;;;13.00;;
18867;SDS011;9563;49.240;9.088;2023-05-02T08:18:09;20.40;;;13.65;;
18867;SDS011;9563;49.240;9.088;2023-05-02T08:20:36;20.90;;;13.15;;
18867;SDS011;9563;49.240;9.088;2023-05-02T08:23:02;20.83;;;13.50;;
18867;SDS011;9563;49.240;9.088;2023-05-02T08:25:29;20.80;;;14.02;;
18867;SDS011;9563;49.240;9.088;2023-05-02T08:27:57;22.92;;;13.68;;
18867;SDS011;9563;49.240;9.088;2023-05-02T08:30:24;23.77;;;14.63;;
18867;SDS011;9563;49.240;9.088;2023-05-02T08:32:51;21.33;;;12.43;;
18867;SDS011;9563;49.240;9.088;2023-05-02T08:35:18;26.20;;;13.57;;
18867;SDS011;9563;49.240;9.088;2023-05-02T08:37:45;17.85;;;12.65;;
18867;SDS011;9563;49.240;9.088;2023-05-02T08:40:12;16.55;;;11.88;;
18867;SDS011;9563;49.240;9.088;2023-05-02T08:42:40;19.73;;;13.57;;
18867;SDS011;9563;49.240;9.088;2023-05-02T08:45:11;21.40;;;12.75;;
18867;SDS011;9563;49.240;9.088;2023-05-02T08:47:39;20.00;;;12.70;;
18867;SDS011;9563;49.240;9.088;2023-05-02T08:50:07;18.98;;;12.15;;
18867;SDS011;9563;49.240;9.088;2023-05-02T08:52:35;31.02;;;15.05;;
18867;SDS011;9563;49.240;9.088;2023-05-02T08:55:04;18.58;;;12.15;;
18867;SDS011;9563;49.240;9.088;2023-05-02T08:57:32;23.92;;;14.23;;
18867;SDS011;9563;49.240;9.088;2023-05-02T08:59:58;17.05;;;12.38;;
18867;SDS011;9563;49.240;9.088;2023-05-02T09:05:17;18.92;;;12.07;;
18867;SDS011;9563;49.240;9.088;2023-05-02T09:07:46;28.65;;;15.25;;
18867;SDS011;9563;49.240;9.088;2023-05-02T09:10:13;45.63;;;19.50;;
18867;SDS011;9563;49.240;9.088;2023-05-02T09:12:40;20.65;;;12.82;;
18867;SDS011;9563;49.240;9.088;2023-05-02T09:15:08;55.45;;;21.30;;
18867;SDS011;9563;49.240;9.088;2023-05-02T09:17:42;28.02;;;14.20;;
18867;SDS011;9563;49.240;9.088;2023-05-02T09:20:12;17.65;;;11.50;;
18867;SDS011;9563;49.240;9.088;2023-05-02T09:22:46;16.27;;;11.77;;
18867;SDS011;9563;49.240;9.088;2023-05-02T09:25:14;19.52;;;12.05;;
18867;SDS011;9563;49.240;9.088;2023-05-02T09:27:48;19.92;;;11.93;;
18867;SDS011;9563;49.240;9.088;2023-05-02T09:30:20;19.75;;;11.82;;
18867;SDS011;9563;49.240;9.088;2023-05-02T09:32:50;16.05;;;11.30;;
18867;SDS011;9563;49.240;9.088;2023-05-02T09:35:19;19.98;;;13.13;;
18867;SDS011;9563;49.240;9.088;2023-05-02T09:37:52;19.40;;;10.30;;
18867;SDS011;9563;49.240;9.088;2023-05-02T09:40:19;15.10;;;10.45;;
18867;SDS011;9563;49.240;9.088;2023-05-02T09:42:47;16.80;;;10.80;;
18867;SDS011;9563;49.240;9.088;2023-05-02T09:45:18;16.67;;;10.73;;
18867;SDS011;9563;49.240;9.088;2023-05-02T09:47:46;16.52;;;10.18;;
18867;SDS011;9563;49.240;9.088;2023-05-02T09:53:01;17.33;;;12.73;;
18867;SDS011;9563;49.240;9.088;2023-05-02T09:55:28;14.60;;;10.82;;
18867;SDS011;9563;49.240;9.088;2023-05-02T09:57:55;16.98;;;11.05;;
18867;SDS011;9563;49.240;9.088;2023-05-02T10:00:36;15.55;;;11.02;;
18867;SDS011;9563;49.240;9.088;2023-05-02T10:03:05;21.35;;;13.23;;
18867;SDS011;9563;49.240;9.088;2023-05-02T10:05:34;39.55;;;15.02;;
18867;SDS011;9563;49.240;9.088;2023-05-02T10:08:02;17.83;;;12.82;;
18867;SDS011;9563;49.240;9.088;2023-05-02T10:10:31;19.52;;;12.93;;
18867;SDS011;9563;49.240;9.088;2023-05-02T10:13:02;22.73;;;13.60;;
18867;SDS011;9563;49.240;9.088;2023-05-02T10:15:30;22.65;;;13.10;;
18867;SDS011;9563;49.240;9.088;2023-05-02T10:17:58;18.67;;;13.40;;
18867;SDS011;9563;49.240;9.088;2023-05-02T10:20:29;19.35;;;11.13;;
18867;SDS011;9563;49.240;9.088;2023-05-02T10:23:00;13.15;;;10.07;;
18867;SDS011;9563;49.240;9.088;2023-05-02T10:25:27;18.13;;;12.93;;
18867;SDS011;9563;49.240;9.088;2023-05-02T10:27:55;18.92;;;13.20;;
18867;SDS011;9563;49.240;9.088;2023-05-02T10:30:23;18.42;;;11.98;;
18867;SDS011;9563;49.240;9.088;2023-05-02T10:32:51;20.35;;;12.82;;
18867;SDS011;9563;49.240;9.088;2023-05-02T10:35:19;21.13;;;13.70;;
18867;SDS011;9563;49.240;9.088;2023-05-02T10:37:48;21.25;;;12.65;;
18867;SDS011;9563;49.240;9.088;2023-05-02T10:40:17;18.25;;;13.05;;
18867;SDS011;9563;49.240;9.088;2023-05-02T10:42:45;19.00;;;12.90;;
18867;SDS011;9563;49.240;9.088;2023-05-02T10:45:28;24.98;;;13.20;;
18867;SDS011;9563;49.240;9.088;2023-05-02T10:48:13;20.60;;;13.38;;
18867;SDS011;9563;49.240;9.088;2023-05-02T10:50:41;26.67;;;16.65;;
18867;SDS011;9563;49.240;9.088;2023-05-02T10:53:20;29.75;;;18.13;;
18867;SDS011;9563;49.240;9.088;2023-05-02T10:56:10;27.58;;;16.20;;
18867;SDS011;9563;49.240;9.088;2023-05-02T10:58:45;34.92;;;14.82;;
18867;SDS011;9563;49.240;9.088;2023-05-02T11:04:09;27.15;;;16.75;;
18867;SDS011;9563;49.240;9.088;2023-05-02T11:06:37;29.58;;;17.77;;
18867;SDS011;9563;49.240;9.088;2023-05-02T11:09:42;29.48;;;16.20;;
18867;SDS011;9563;49.240;9.088;2023-05-02T11:12:14;36.00;;;18.77;;
18867;SDS011;9563;49.240;9.088;2023-05-02T11:15:11;28.85;;;18.10;;
18867;SDS011;9563;49.240;9.088;2023-05-02T11:17:57;28.40;;;19.60;;
18867;SDS011;9563;49.240;9.088;2023-05-02T11:20:26;28.83;;;16.77;;
18867;SDS011;9563;49.240;9.088;2023-05-02T11:22:56;26.23;;;16.77;;
18867;SDS011;9563;49.240;9.088;2023-05-02T11:25:27;33.08;;;19.17;;
18867;SDS011;9563;49.240;9.088;2023-05-02T11:28:00;29.55;;;19.13;;
18867;SDS011;9563;49.240;9.088;2023-05-02T11:30:40;30.10;;;18.92;;
18867;SDS011;9563;49.240;9.088;2023-05-02T11:33:14;32.80;;;18.92;;
18867;SDS011;9563;49.240;9.088;2023-05-02T11:35:44;31.42;;;19.85;;
18867;SDS011;9563;49.240;9.088;2023-05-02T11:38:13;31.05;;;19.40;;
18867;SDS011;9563;49.240;9.088;2023-05-02T11:40:51;27.67;;;18.10;;
18867;SDS011;9563;49.240;9.088;2023-05-02T11:43:22;27.58;;;17.52;;
18867;SDS011;9563;49.240;9.088;2023-05-02T11:45:50;31.42;;;18.42;;
18867;SDS011;9563;49.240;9.088;2023-05-02T11:48:18;28.38;;;16.92;;
18867;SDS011;9563;49.240;9.088;2023-05-02T11:50:46;23.73;;;15.25;;
18867;SDS011;9563;49.240;9.088;2023-05-02T11:53:15;27.23;;;17.08;;
18867;SDS011;9563;49.240;9.088;2023-05-02T11:55:43;23.38;;;16.20;;
18867;SDS011;9563;49.240;9.088;2023-05-02T11:58:11;23.52;;;15.00;;
18867;SDS011;9563;49.240;9.088;2023-05-02T12:00:41;25.55;;;16.15;;
18867;SDS011;9563;49.240;9.088;2023-05-02T12:03:18;22.13;;;15.07;;
18867;SDS011;9563;49.240;9.088;2023-05-02T12:05:49;27.02;;;14.90;;
18867;SDS011;9563;49.240;9.088;2023-05-02T12:08:17;18.27;;;12.43;;
18867;SDS011;9563;49.240;9.088;2023-05-02T12:10:45;20.17;;;13.73;;
18867;SDS011;9563;49.240;9.088;2023-05-02T12:13:12;20.05;;;13.52;;
18867;SDS011;9563;49.240;9.088;2023-05-02T12:15:40;18.40;;;12.30;;
18867;SDS011;9563;49.240;9.088;2023-05-02T12:18:07;18.40;;;12.43;;
18867;SDS011;9563;49.240;9.088;2023-05-02T12:20:35;24.25;;;11.70;;
18867;SDS011;9563;49.240;9.088;2023-05-02T12:23:02;19.80;;;12.65;;
18867;SDS011;9563;49.240;9.088;2023-05-02T12:25:31;18.00;;;11.02;;
18867;SDS011;9563;49.240;9.088;2023-05-02T12:27:58;14.55;;;10.07;;
18867;SDS011;9563;49.240;9.088;2023-05-02T12:30:25;12.77;;;8.75;;
18867;SDS011;9563;49.240;9.088;2023-05-02T12:32:56;16.55;;;9.30;;
18867;SDS011;9563;49.240;9.088;2023-05-02T12:35:25;16.50;;;10.55;;
18867;SDS011;9563;49.240;9.088;2023-05-02T12:37:53;14.27;;;8.75;;
18867;SDS011;9563;49.240;9.088;2023-05-02T12:40:20;17.10;;;9.50;;
18867;SDS011;9563;49.240;9.088;2023-05-02T12:42:57;12.52;;;9.30;;
18867;SDS011;9563;49.240;9.088;2023-05-02T12:45:25;13.38;;;8.90;;
18867;SDS011;9563;49.240;9.088;2023-05-02T12:47:53;16.25;;;9.25;;
18867;SDS011;9563;49.240;9.088;2023-05-02T12:50:21;14.55;;;8.88;;
18867;SDS011;9563;49.240;9.088;2023-05-02T12:53:01;12.43;;;8.55;;
18867;SDS011;9563;49.240;9.088;2023-05-02T12:55:28;12.27;;;8.73;;
18867;SDS011;9563;49.240;9.088;2023-05-02T12:58:00;10.45;;;7.32;;
18867;SDS011;9563;49.240;9.088;2023-05-02T13:00:27;12.27;;;6.82;;
18867;SDS011;9563;49.240;9.088;2023-05-02T13:02:55;11.95;;;7.68;;
18867;SDS011;9563;49.240;9.088;2023-05-02T13:05:24;10.50;;;7.10;;
18867;SDS011;9563;49.240;9.088;2023-05-02T13:07:51;12.85;;;7.25;;
18867;SDS011;9563;49.240;9.088;2023-05-02T13:10:20;12.60;;;7.78;;
18867;SDS011;9563;49.240;9.088;2023-05-02T13:12:48;11.30;;;7.30;;
18867;SDS011;9563;49.240;9.088;2023-05-02T13:15:16;12.95;;;7.65;;
18867;SDS011;9563;49.240;9.088;2023-05-02T13:17:43;13.32;;;7.20;;
18867;SDS011;9563;49.240;9.088;2023-05-02T13:20:11;9.63;;;5.93;;
18867;SDS011;9563;49.240;9.088;2023-05-02T13:22:39;15.65;;;7.10;;
18867;SDS011;9563;49.240;9.088;2023-05-02T13:25:07;12.30;;;6.65;;
18867;SDS011;9563;49.240;9.088;2023-05-02T13:27:34;10.27;;;6.32;;
18867;SDS011;9563;49.240;9.088;2023-05-02T13:30:01;10.75;;;6.40;;
18867;SDS011;9563;49.240;9.088;2023-05-02T13:32:28;10.07;;;6.05;;
18867;SDS011;9563;49.240;9.088;2023-05-02T13:34:55;11.65;;;6.60;;
18867;SDS011;9563;49.240;9.088;2023-05-02T13:37:22;11.65;;;6.85;;
18867;SDS011;9563;49.240;9.088;2023-05-02T13:39:51;13.50;;;6.85;;
18867;SDS011;9563;49.240;9.088;2023-05-02T13:42:18;17.98;;;7.13;;
18867;SDS011;9563;49.240;9.088;2023-05-02T13:44:45;15.00;;;6.82;;
18867;SDS011;9563;49.240;9.088;2023-05-02T13:47:12;12.35;;;6.72;;
18867;SDS011;9563;49.240;9.088;2023-05-02T13:49:39;10.68;;;7.20;;
18867;SDS011;9563;49.240;9.088;2023-05-02T13:52:06;11.10;;;6.38;;
18867;SDS011;9563;49.240;9.088;2023-05-02T13:54:33;12.43;;;7.30;;
18867;SDS011;9563;49.240;9.088;2023-05-02T13:57:01;11.68;;;7.00;;
18867;SDS011;9563;49.240;9.088;2023-05-02T13:59:29;12.48;;;6.43;;
18867;SDS011;9563;49.240;9.088;2023-05-02T14:01:56;12.35;;;6.55;;
18867;SDS011;9563;49.240;9.088;2023-05-02T14:04:23;11.57;;;6.30;;
18867;SDS011;9563;49.240;9.088;2023-05-02T14:06:50;13.65;;;6.57;;
18867;SDS011;9563;49.240;9.088;2023-05-02T14:09:17;12.10;;;5.85;;
18867;SDS011;9563;49.240;9.088;2023-05-02T14:11:45;17.60;;;6.53;;
18867;SDS011;9563;49.240;9.088;2023-05-02T14:14:14;8.20;;;5.22;;
18867;SDS011;9563;49.240;9.088;2023-05-02T14:16:41;8.75;;;5.18;;
18867;SDS011;9563;49.240;9.088;2023-05-02T14:19:09;8.20;;;5.05;;
18867;SDS011;9563;49.240;9.088;2023-05-02T14:21:36;7.25;;;4.65;;
18867;SDS011;9563;49.240;9.088;2023-05-02T14:24:03;7.40;;;5.20;;
18867;SDS011;9563;49.240;9.088;2023-05-02T14:26:31;8.18;;;4.60;;
18867;SDS011;9563;49.240;9.088;2023-05-02T14:28:58;7.78;;;5.18;;
18867;SDS011;9563;49.240;9.088;2023-05-02T14:31:27;6.28;;;4.15;;
18867;SDS011;9563;49.240;9.088;2023-05-02T14:33:54;9.77;;;4.88;;
18867;SDS011;9563;49.240;9.088;2023-05-02T14:36:21;7.57;;;4.07;;
18867;SDS011;9563;49.240;9.088;2023-05-02T14:38:48;5.72;;;3.78;;
18867;SDS011;9563;49.240;9.088;2023-05-02T14:41:15;8.38;;;4.72;;
18867;SDS011;9563;49.240;9.088;2023-05-02T14:43:42;7.65;;;4.43;;
18867;SDS011;9563;49.240;9.088;2023-05-02T14:46:09;5.97;;;3.58;;
18867;SDS011;9563;49.240;9.088;2023-05-02T14:48:37;5.07;;;3.28;;
18867;SDS011;9563;49.240;9.088;2023-05-02T14:51:04;5.28;;;3.45;;
18867;SDS011;9563;49.240;9.088;2023-05-02T14:53:31;6.82;;;3.25;;
18867;SDS011;9563;49.240;9.088;2023-05-02T14:55:58;6.13;;;3.85;;
18867;SDS011;9563;49.240;9.088;2023-05-02T14:58:25;6.47;;;3.08;;
18867;SDS011;9563;49.240;9.088;2023-05-02T15:00:52;7.15;;;3.75;;
18867;SDS011;9563;49.240;9.088;2023-05-02T15:03:19;6.25;;;4.00;;
18867;SDS011;9563;49.240;9.088;2023-05-02T15:05:47;10.48;;;5.00;;
18867;SDS011;9563;49.240;9.088;2023-05-02T15:08:14;7.70;;;4.63;;
18867;SDS011;9563;49.240;9.088;2023-05-02T15:10:41;6.30;;;4.53;;
18867;SDS011;9563;49.240;9.088;2023-05-02T15:13:08;10.60;;;5.22;;
18867;SDS011;9563;49.240;9.088;2023-05-02T15:15:35;6.53;;;4.15;;
18867;SDS011;9563;49.240;9.088;2023-05-02T15:18:02;7.35;;;4.57;;
18867;SDS011;9563;49.240;9.088;2023-05-02T15:20:29;10.68;;;4.85;;
18867;SDS011;9563;49.240;9.088;2023-05-02T15:22:57;8.45;;;4.10;;
18867;SDS011;9563;49.240;9.088;2023-05-02T15:25:27;6.05;;;3.60;;
18867;SDS011;9563;49.240;9.088;2023-05-02T15:27:54;5.15;;;3.60;;
18867;SDS011;9563;49.240;9.088;2023-05-02T15:30:21;9.10;;;4.22;;
18867;SDS011;9563;49.240;9.088;2023-05-02T15:32:48;7.22;;;4.60;;
18867;SDS011;9563;49.240;9.088;2023-05-02T15:35:15;7.35;;;4.70;;
18867;SDS011;9563;49.240;9.088;2023-05-02T15:37:42;8.25;;;4.75;;
18867;SDS011;9563;49.240;9.088;2023-05-02T15:40:11;6.20;;;4.10;;
18867;SDS011;9563;49.240;9.088;2023-05-02T15:42:39;9.63;;;4.13;;
18867;SDS011;9563;49.240;9.088;2023-05-02T15:45:06;6.35;;;3.85;;
18867;SDS011;9563;49.240;9.088;2023-05-02T15:47:36;4.03;;;2.67;;
18867;SDS011;9563;49.240;9.088;2023-05-02T15:50:03;9.27;;;2.97;;
18867;SDS011;9563;49.240;9.088;2023-05-02T15:52:30;4.05;;;2.50;;
18867;SDS011;9563;49.240;9.088;2023-05-02T15:54:57;6.28;;;2.80;;
18867;SDS011;9563;49.240;9.088;2023-05-02T15:57:26;6.28;;;2.88;;
18867;SDS011;9563;49.240;9.088;2023-05-02T15:59:53;4.97;;;2.40;;
18867;SDS011;9563;49.240;9.088;2023-05-02T16:02:20;4.05;;;2.40;;
18867;SDS011;9563;49.240;9.088;2023-05-02T16:04:47;4.57;;;2.78;;
18867;SDS011;9563;49.240;9.088;2023-05-02T16:07:14;6.28;;;3.03;;
18867;SDS011;9563;49.240;9.088;2023-05-02T16:09:41;5.78;;;2.67;;
18867;SDS011;9563;49.240;9.088;2023-05-02T16:12:08;5.22;;;2.70;;
18867;SDS011;9563;49.240;9.088;2023-05-02T16:14:36;8.60;;;3.20;;
18867;SDS011;9563;49.240;9.088;2023-05-02T16:17:03;5.47;;;3.03;;
18867;SDS011;9563;49.240;9.088;2023-05-02T16:19:30;7.90;;;3.85;;
18867;SDS011;9563;49.240;9.088;2023-05-02T16:21:58;6.38;;;3.95;;
18867;SDS011;9563;49.240;9.088;2023-05-02T16:24:25;6.45;;;4.07;;
18867;SDS011;9563;49.240;9.088;2023-05-02T16:26:52;6.43;;;3.80;;
18867;SDS011;9563;49.240;9.088;2023-05-02T16:29:18;8.13;;;3.65;;
18867;SDS011;9563;49.240;9.088;2023-05-02T16:31:47;8.63;;;4.18;;
18867;SDS011;9563;49.240;9.088;2023-05-02T16:34:13;6.68;;;3.97;;
18867;SDS011;9563;49.240;9.088;2023-05-02T16:36:40;7.60;;;4.05;;
18867;SDS011;9563;49.240;9.088;2023-05-02T16:39:07;6.47;;;4.05;;
18867;SDS011;9563;49.240;9.088;2023-05-02T16:41:35;7.47;;;4.43;;
18867;SDS011;9563;49.240;9.088;2023-05-02T16:44:02;7.88;;;4.20;;
18867;SDS011;9563;49.240;9.088;2023-05-02T16:46:29;8.70;;;4.93;;
18867;SDS011;9563;49.240;9.088;2023-05-02T16:48:58;8.57;;;4.63;;
18867;SDS011;9563;49.240;9.088;2023-05-02T16:51:25;9.38;;;4.35;;
18867;SDS011;9563;49.240;9.088;2023-05-02T16:53:52;6.93;;;4.20;;
18867;SDS011;9563;49.240;9.088;2023-05-02T16:56:19;7.32;;;4.00;;
18867;SDS011;9563;49.240;9.088;2023-05-02T16:58:46;7.10;;;4.53;;
18867;SDS011;9563;49.240;9.088;2023-05-02T17:01:12;7.95;;;3.75;;
18867;SDS011;9563;49.240;9.088;2023-05-02T17:03:39;8.57;;;4.35;;
18867;SDS011;9563;49.240;9.088;2023-05-02T17:06:08;12.05;;;4.60;;
18867;SDS011;9563;49.240;9.088;2023-05-02T17:08:35;7.38;;;4.05;;
18867;SDS011;9563;49.240;9.088;2023-05-02T17:11:02;5.85;;;3.80;;
18867;SDS011;9563;49.240;9.088;2023-05-02T17:13:29;6.50;;;3.83;;
18867;SDS011;9563;49.240;9.088;2023-05-02T17:15:56;6.13;;;4.03;;
18867;SDS011;9563;49.240;9.088;2023-05-02T17:18:24;7.22;;;3.92;;
18867;SDS011;9563;49.240;9.088;2023-05-02T17:20:51;5.45;;;3.60;;
18867;SDS011;9563;49.240;9.088;2023-05-02T17:23:20;8.23;;;4.28;;
18867;SDS011;9563;49.240;9.088;2023-05-02T17:25:47;6.93;;;3.88;;
18867;SDS011;9563;49.240;9.088;2023-05-02T17:28:14;7.63;;;4.68;;
18867;SDS011;9563;49.240;9.088;2023-05-02T17:30:41;6.03;;;3.58;;
18867;SDS011;9563;49.240;9.088;2023-05-02T17:33:08;6.20;;;3.60;;
18867;SDS011;9563;49.240;9.088;2023-05-02T17:35:35;6.32;;;3.28;;
18867;SDS011;9563;49.240;9.088;2023-05-02T17:38:02;7.28;;;3.25;;
18867;SDS011;9563;49.240;9.088;2023-05-02T17:40:31;12.65;;;4.18;;
18867;SDS011;9563;49.240;9.088;2023-05-02T17:42:58;9.90;;;3.78;;
18867;SDS011;9563;49.240;9.088;2023-05-02T17:45:26;7.43;;;3.53;;
18867;SDS011;9563;49.240;9.088;2023-05-02T17:47:53;6.57;;;3.50;;
18867;SDS011;9563;49.240;9.088;2023-05-02T17:50:20;5.10;;;2.90;;
18867;SDS011;9563;49.240;9.088;2023-05-02T17:52:46;5.18;;;3.35;;
18867;SDS011;9563;49.240;9.088;2023-05-02T17:55:13;5.78;;;3.47;;
18867;SDS011;9563;49.240;9.088;2023-05-02T17:57:42;6.00;;;3.58;;
18867;SDS011;9563;49.240;9.088;2023-05-02T18:00:09;8.07;;;3.78;;
18867;SDS011;9563;49.240;9.088;2023-05-02T18:02:36;6.55;;;3.70;;
18867;SDS011;9563;49.240;9.088;2023-05-02T18:05:04;6.28;;;3.38;;
18867;SDS011;9563;49.240;9.088;2023-05-02T18:07:31;6.20;;;3.95;;
18867;SDS011;9563;49.240;9.088;2023-05-02T18:09:58;9.48;;;3.88;;
18867;SDS011;9563;49.240;9.088;2023-05-02T18:12:27;6.13;;;3.80;;
18867;SDS011;9563;49.240;9.088;2023-05-02T18:14:56;7.38;;;3.38;;
18867;SDS011;9563;49.240;9.088;2023-05-02T18:17:24;7.15;;;3.40;;
18867;SDS011;9563;49.240;9.088;2023-05-02T18:19:50;5.80;;;3.58;;
18867;SDS011;9563;49.240;9.088;2023-05-02T18:22:17;6.88;;;3.63;;
18867;SDS011;9563;49.240;9.088;2023-05-02T18:24:45;6.65;;;3.47;;
18867;SDS011;9563;49.240;9.088;2023-05-02T18:27:12;5.30;;;3.28;;
18867;SDS011;9563;49.240;9.088;2023-05-02T18:29:39;4.50;;;3.25;;
18867;SDS011;9563;49.240;9.088;2023-05-02T18:32:08;7.32;;;3.83;;
18867;SDS011;9563;49.240;9.088;2023-05-02T18:34:35;6.05;;;4.20;;
18867;SDS011;9563;49.240;9.088;2023-05-02T18:37:02;9.98;;;3.63;;
18867;SDS011;9563;49.240;9.088;2023-05-02T18:39:29;7.78;;;3.67;;
18867;SDS011;9563;49.240;9.088;2023-05-02T18:41:57;4.93;;;3.30;;
18867;SDS011;9563;49.240;9.088;2023-05-02T18:44:27;6.82;;;4.28;;
18867;SDS011;9563;49.240;9.088;2023-05-02T18:46:53;6.13;;;3.80;;
18867;SDS011;9563;49.240;9.088;2023-05-02T18:49:23;6.50;;;3.90;;
18867;SDS011;9563;49.240;9.088;2023-05-02T18:51:50;6.15;;;3.60;;
18867;SDS011;9563;49.240;9.088;2023-05-02T18:54:18;5.70;;;3.58;;
18867;SDS011;9563;49.240;9.088;2023-05-02T18:56:47;8.27;;;3.83;;
18867;SDS011;9563;49.240;9.088;2023-05-02T18:59:14;4.43;;;3.20;;
18867;SDS011;9563;49.240;9.088;2023-05-02T19:01:44;5.38;;;3.78;;
18867;SDS011;9563;49.240;9.088;2023-05-02T19:04:11;4.57;;;3.10;;
18867;SDS011;9563;49.240;9.088;2023-05-02T19:06:39;4.72;;;3.00;;
18867;SDS011;9563;49.240;9.088;2023-05-02T19:09:06;4.53;;;3.28;;
18867;SDS011;9563;49.240;9.088;2023-05-02T19:11:33;5.72;;;2.90;;
18867;SDS011;9563;49.240;9.088;2023-05-02T19:14:00;8.50;;;4.50;;
18867;SDS011;9563;49.240;9.088;2023-05-02T19:16:27;5.85;;;3.38;;
18867;SDS011;9563;49.240;9.088;2023-05-02T19:18:55;5.18;;;3.25;;
18867;SDS011;9563;49.240;9.088;2023-05-02T19:21:22;6.13;;;3.58;;
18867;SDS011;9563;49.240;9.088;2023-05-02T19:23:51;5.85;;;3.78;;
18867;SDS011;9563;49.240;9.088;2023-05-02T19:26:20;9.93;;;4.10;;
18867;SDS011;9563;49.240;9.088;2023-05-02T19:28:47;6.20;;;4.13;;
18867;SDS011;9563;49.240;9.088;2023-05-02T19:31:14;6.80;;;3.85;;
18867;SDS011;9563;49.240;9.088;2023-05-02T19:33:43;8.65;;;4.40;;
18867;SDS011;9563;49.240;9.088;2023-05-02T19:36:15;6.63;;;4.07;;
18867;SDS011;9563;49.240;9.088;2023-05-02T19:38:42;6.35;;;3.80;;
18867;SDS011;9563;49.240;9.088;2023-05-02T19:41:11;6.93;;;3.75;;
18867;SDS011;9563;49.240;9.088;2023-05-02T19:43:38;6.38;;;4.30;;
18867;SDS011;9563;49.240;9.088;2023-05-02T19:46:04;6.82;;;4.10;;
18867;SDS011;9563;49.240;9.088;2023-05-02T19:48:31;6.50;;;4.30;;
18867;SDS011;9563;49.240;9.088;2023-05-02T19:50:59;7.30;;;4.07;;
18867;SDS011;9563;49.240;9.088;2023-05-02T19:53:27;7.32;;;4.38;;
18867;SDS011;9563;49.240;9.088;2023-05-02T19:55:55;8.52;;;4.45;;
18867;SDS011;9563;49.240;9.088;2023-05-02T19:58:24;5.82;;;3.70;;
18867;SDS011;9563;49.240;9.088;2023-05-02T20:00:51;5.30;;;3.92;;
18867;SDS011;9563;49.240;9.088;2023-05-02T20:03:18;6.97;;;4.43;;